Madison, MN

12:16 PM CDT on March 30, 2017 (GMT -0500)
Madison-Lac Qui Parle County

Weather History for KDXX - January, 2013

Change the Weather History Date:

Wednesday, January 30, 2013

  Actual Average (KAQP) Record (KAQP)
Temperature  
Mean Temperature 6 °F -  
Max Temperature 17 °F 21 °F 51 °F (2012)
Min Temperature -4 °F 5 °F -23 °F (2004)
Degree Days  
Heating Degree Days 58    
Moisture  
Dew Point 4 °F    
Average Humidity 78    
Maximum Humidity 86    
Minimum Humidity 66    
Precipitation  
Precipitation 0.00 in - - ()
Sea Level Pressure  
Sea Level Pressure 29.85 in    
Wind  
Wind Speed 20 mph (NNW)    
Max Wind Speed 30 mph    
Max Gust Speed 36 mph    
Visibility 9 miles    
Events Snow    
Averages and records for this station are not official NWS values.
T = Trace of Precipitation, MM = Missing Value Source: NWS Daily Summary

Daily Weather History Graph

Daily Weather History Graph

Search for Another Location

Airport or City:

Trip Planner

Search our weather history database for the weather conditions in past years. The results will help you decide how hot, cold, wet, or windy it might be!

Date:

Astronomy

Jan. 30, 2013 Rise Set
Actual Time 7:46 AM CST 5:30 PM CST
Civil Twilight 7:15 AM CST 6:01 PM CST
Nautical Twilight 6:39 AM CST 6:37 PM CST
Astronomical Twilight 6:05 AM CST 7:11 PM CST
Moon 9:43 PM CST 9:02 AM CST
Length of Visible Light 10h 46m
Length of Day
9h 43m
Waning Gibbous, 87% of the Moon is Illuminated
Jan 30
Waning Gibbous
Feb 3
Last Quarter
Feb 10
New
Feb 17
First Quarter
Feb 25
Full

Hourly Weather History & Observations

Time (CST) Temp. Windchill Dew Point Humidity Pressure Visibility Wind Dir Wind Speed Gust Speed Precip Events Conditions
12:14 AM 17.6 °F 2.2 °F 14.0 °F 86% 29.87 in 10.0 mi North 17.3 mph 24.2 mph N/A   Overcast
12:33 AM 17.6 °F 1.3 °F 12.2 °F 79% 29.86 in 10.0 mi North 19.6 mph 26.5 mph N/A   Overcast
12:54 AM 17.6 °F 2.2 °F 12.2 °F 79% 29.86 in 10.0 mi North 17.3 mph 24.2 mph N/A   Overcast
1:14 AM 15.8 °F -2.3 °F 12.2 °F 86% 29.86 in 10.0 mi North 23.0 mph 26.5 mph N/A Snow Light Snow
1:33 AM 15.8 °F -0.6 °F 12.2 °F 86% 29.84 in 10.0 mi North 18.4 mph 23.0 mph N/A   Overcast
1:54 AM 15.8 °F -1.9 °F 10.4 °F 79% 29.83 in 10.0 mi NNW 21.9 mph 26.5 mph N/A   Overcast
2:14 AM 15.8 °F -3.1 °F 10.4 °F 79% 29.83 in 10.0 mi North 25.3 mph 31.1 mph N/A   Overcast
2:33 AM 15.8 °F -3.1 °F 10.4 °F 79% 29.83 in 10.0 mi North 25.3 mph 29.9 mph N/A   Overcast
2:54 AM 15.8 °F -1.9 °F 10.4 °F 79% 29.84 in 10.0 mi North 21.9 mph 31.1 mph N/A   Overcast
3:14 AM 15.8 °F -1.1 °F 10.4 °F 79% 29.85 in 10.0 mi North 19.6 mph 25.3 mph N/A   Overcast
3:33 AM 15.8 °F -1.9 °F 10.4 °F 79% 29.85 in 10.0 mi North 21.9 mph 29.9 mph N/A   Overcast
3:54 AM 15.8 °F -1.5 °F 10.4 °F 79% 29.85 in 10.0 mi North 20.7 mph - N/A Snow Light Snow
4:14 AM 15.8 °F -1.1 °F 10.4 °F 79% 29.84 in 10.0 mi NNW 19.6 mph 26.5 mph N/A Snow Light Snow
4:34 AM 15.8 °F -1.5 °F 10.4 °F 79% 29.84 in 10.0 mi NNW 20.7 mph 24.2 mph N/A   Overcast
4:54 AM 14.0 °F -3.4 °F 10.4 °F 86% 29.84 in 10.0 mi NNW 19.6 mph 25.3 mph N/A   Overcast
5:13 AM 14.0 °F -3.4 °F 10.4 °F 86% 29.84 in 7.0 mi North 19.6 mph - N/A Snow Light Snow
5:34 AM 14.0 °F -4.3 °F 8.6 °F 79% 29.84 in 10.0 mi North 21.9 mph 26.5 mph N/A   Overcast
5:54 AM 12.2 °F -5.3 °F 8.6 °F 85% 29.84 in 10.0 mi North 18.4 mph - N/A   Overcast
6:13 AM 12.2 °F -6.7 °F 6.8 °F 79% 29.84 in 10.0 mi NNW 21.9 mph - N/A   Overcast
6:34 AM 12.2 °F -6.3 °F 6.8 °F 79% 29.83 in 10.0 mi NNW 20.7 mph - N/A   Overcast
7:13 AM 12.2 °F -4.8 °F 8.6 °F 85% 29.84 in 7.0 mi NNW 17.3 mph - N/A Snow Light Snow
7:34 AM 12.2 °F -7.9 °F 6.8 °F 79% 29.83 in 7.0 mi NNW 25.3 mph 29.9 mph N/A Snow Light Snow
7:54 AM 12.2 °F -8.2 °F 6.8 °F 79% 29.83 in 2.5 mi NNW 26.5 mph 33.4 mph N/A Snow Light Snow
8:13 AM 12.2 °F -8.9 °F 6.8 °F 79% 29.84 in 2.5 mi NNW 28.8 mph 35.7 mph N/A Snow Light Snow
8:34 AM 12.2 °F -8.6 °F 6.8 °F 79% 29.84 in 10.0 mi NNW 27.6 mph 32.2 mph N/A   Overcast
8:54 AM 12.2 °F -8.2 °F 6.8 °F 79% 29.84 in 4.0 mi NNW 26.5 mph 31.1 mph N/A   Haze
9:13 AM 12.2 °F -9.3 °F 6.8 °F 79% 29.84 in 2.0 mi NNW 29.9 mph 33.4 mph N/A   Haze
9:34 AM 12.2 °F -7.9 °F 6.8 °F 79% 29.83 in 7.0 mi NNW 25.3 mph 31.1 mph N/A   Overcast
9:54 AM 12.2 °F -8.9 °F 6.8 °F 79% 29.83 in 3.0 mi NNW 28.8 mph 34.5 mph N/A   Haze
10:13 AM 12.2 °F -8.2 °F 6.8 °F 79% 29.84 in 5.0 mi NNW 26.5 mph 32.2 mph N/A   Haze
10:34 AM 12.2 °F -7.1 °F 6.8 °F 79% 29.84 in 7.0 mi NNW 23.0 mph 29.9 mph N/A   Overcast
10:53 AM 12.2 °F -7.9 °F 6.8 °F 79% 29.84 in 7.0 mi NNW 25.3 mph 29.9 mph N/A   Overcast
11:14 AM 12.2 °F -7.1 °F 6.8 °F 79% 29.85 in 4.0 mi NNW 23.0 mph 32.2 mph N/A   Haze
11:34 AM 12.2 °F -6.7 °F 6.8 °F 79% 29.85 in 2.5 mi NW 21.9 mph - N/A Snow Light Snow
11:53 AM 12.2 °F -6.3 °F 6.8 °F 79% 29.84 in 7.0 mi NW 20.7 mph 27.6 mph N/A   Overcast
12:14 PM 10.4 °F -8.2 °F 6.8 °F 85% 29.84 in 7.0 mi NW 19.6 mph 27.6 mph N/A   Overcast
12:34 PM 12.2 °F -5.3 °F 6.8 °F 79% 29.84 in 10.0 mi NW 18.4 mph 28.8 mph N/A   Overcast
12:53 PM 12.2 °F -5.8 °F 6.8 °F 79% 29.83 in 10.0 mi NW 19.6 mph 25.3 mph N/A   Overcast
1:14 PM 10.4 °F -8.2 °F 6.8 °F 85% 29.83 in 10.0 mi NW 19.6 mph 25.3 mph N/A   Overcast
1:34 PM 10.4 °F -7.7 °F 5.0 °F 79% 29.82 in 10.0 mi NW 18.4 mph - N/A   Overcast
1:53 PM 10.4 °F -9.5 °F 5.0 °F 79% 29.82 in 10.0 mi NNW 23.0 mph 26.5 mph N/A   Overcast
2:14 PM 10.4 °F -7.7 °F 5.0 °F 79% 29.82 in 7.0 mi NW 18.4 mph 27.6 mph N/A   Overcast
2:34 PM 10.4 °F -8.6 °F 5.0 °F 79% 29.82 in 10.0 mi NW 20.7 mph 26.5 mph N/A   Overcast
2:53 PM 10.4 °F -8.2 °F 5.0 °F 79% 29.83 in 7.0 mi NW 19.6 mph 23.0 mph N/A   Mostly Cloudy
3:14 PM 10.4 °F -7.7 °F 3.2 °F 73% 29.83 in 7.0 mi NW 18.4 mph 27.6 mph N/A   Overcast
3:34 PM 10.4 °F -6.0 °F 5.0 °F 79% 29.83 in 10.0 mi NW 15.0 mph 23.0 mph N/A   Overcast
3:53 PM 10.4 °F -6.6 °F 3.2 °F 73% 29.83 in 10.0 mi NW 16.1 mph 24.2 mph N/A   Overcast
4:14 PM 8.6 °F -8.3 °F 3.2 °F 79% 29.83 in 10.0 mi NW 15.0 mph 21.9 mph N/A   Overcast
4:33 PM 8.6 °F -8.3 °F 3.2 °F 79% 29.83 in 10.0 mi NNW 15.0 mph - N/A   Overcast
4:54 PM 8.6 °F -8.3 °F 1.4 °F 73% 29.83 in 10.0 mi NNW 15.0 mph - N/A   Scattered Clouds
5:14 PM 8.6 °F -7.7 °F 1.4 °F 73% 29.84 in 10.0 mi NW 13.8 mph - N/A   Clear
5:33 PM 6.8 °F -11.3 °F 1.4 °F 79% 29.84 in 10.0 mi NNW 16.1 mph - N/A   Clear
5:54 PM 6.8 °F -11.8 °F -0.4 °F 72% 29.85 in 10.0 mi NW 17.3 mph 23.0 mph N/A   Clear
6:14 PM 5.0 °F -13.0 °F -2.2 °F 72% 29.85 in 10.0 mi NNW 15.0 mph 23.0 mph N/A   Clear
6:33 PM 3.2 °F -16.5 °F -2.2 °F 78% 29.85 in 10.0 mi NW 17.3 mph 21.9 mph N/A   Clear
6:54 PM 3.2 °F -14.6 °F -2.2 °F 78% 29.86 in 10.0 mi NW 13.8 mph - N/A   Clear
7:14 PM 3.2 °F -13.9 °F -2.2 °F 78% 29.86 in 10.0 mi NW 12.7 mph - N/A   Clear
7:33 PM 1.4 °F -18.2 °F -5.8 °F 72% 29.87 in 10.0 mi NW 16.1 mph - N/A   Clear
7:54 PM 1.4 °F -18.8 °F -5.8 °F 72% 29.87 in 10.0 mi NW 17.3 mph 20.7 mph N/A   Scattered Clouds
8:14 PM 1.4 °F -17.6 °F -5.8 °F 72% 29.87 in 10.0 mi NW 15.0 mph - N/A   Mostly Cloudy
8:33 PM 1.4 °F -18.2 °F -5.8 °F 72% 29.86 in 10.0 mi NW 16.1 mph 23.0 mph N/A   Mostly Cloudy
8:54 PM -0.4 °F -21.7 °F -7.6 °F 72% 29.87 in 10.0 mi NW 18.4 mph - N/A   Overcast
9:14 PM -0.4 °F -22.8 °F -7.6 °F 72% 29.87 in 10.0 mi NW 20.7 mph 27.6 mph N/A   Mostly Cloudy
9:34 PM -0.4 °F -23.3 °F -9.4 °F 66% 29.88 in 10.0 mi NW 21.9 mph 26.5 mph N/A   Mostly Cloudy
9:53 PM -2.2 °F -23.5 °F -9.4 °F 71% 29.88 in 10.0 mi NW 17.3 mph 24.2 mph N/A   Overcast
10:14 PM -2.2 °F -24.1 °F -9.4 °F 71% 29.88 in 10.0 mi NW 18.4 mph 23.0 mph N/A   Overcast
10:34 PM -2.2 °F -24.7 °F -9.4 °F 71% 29.89 in 10.0 mi NW 19.6 mph 27.6 mph N/A   Overcast
10:53 PM -2.2 °F -22.2 °F -9.4 °F 71% 29.89 in 10.0 mi NW 15.0 mph - N/A   Overcast
11:14 PM -2.2 °F -24.1 °F -11.2 °F 66% 29.90 in 10.0 mi NW 18.4 mph 26.5 mph N/A   Overcast
11:34 PM -4.0 °F -25.2 °F -9.4 °F 78% 29.90 in 10.0 mi NW 16.1 mph 21.9 mph N/A   Overcast
11:53 PM -4.0 °F -25.2 °F -9.4 °F 78% 29.91 in 10.0 mi NW 16.1 mph 26.5 mph N/A   Overcast